Time;durP1;ratioP1;P1;durP2;ratioP2;P2;SDS_P1;SDS_P2;PMS_P1;PMS_P2;Temp;Humidity;BMP_temperature;BMP_pressure;BME280_temperature;BME280_humidity;BME280_pressure;Samples;Min_cycle;Max_cycle;Signal;HPM_P1;HPM_P2
2021/12/29 07:51:02;;;;;;;3.20;0.68;;;;;;;6.70;90.02;94996.81;5662823;24;20089;-43
2021/12/29 07:53:29;;;;;;;4.80;1.20;;;;;;;6.69;89.95;95008.66;4838819;29;20049;-47
2021/12/29 07:55:56;;;;;;;3.88;0.90;;;;;;;6.76;89.48;94998.97;4841021;29;20053;-46
2021/12/29 07:58:23;;;;;;;3.13;0.80;;;;;;;6.76;89.72;94998.97;4843590;29;20136;-44
2021/12/29 08:00:50;;;;;;;2.55;0.68;;;;;;;6.83;89.50;95000.34;4836292;29;20078;-48
2021/12/29 08:03:17;;;;;;;2.20;0.65;;;;;;;6.82;88.98;95006.81;4822591;29;20046;-48
2021/12/29 08:05:45;;;;;;;3.58;0.52;;;;;;;6.87;89.08;95014.69;4820791;29;20085;-47
2021/12/29 08:08:12;;;;;;;5.00;0.90;;;;;;;6.87;88.79;95020.84;4813837;29;20043;-44
2021/12/29 08:10:40;;;;;;;3.13;0.90;;;;;;;6.92;88.42;95026.03;4815743;29;20050;-48
2021/12/29 08:13:08;;;;;;;4.05;0.57;;;;;;;6.85;88.26;95030.34;4815583;29;20046;-46
2021/12/29 08:15:35;;;;;;;2.22;0.70;;;;;;;6.92;88.69;95046.72;4819893;29;20046;-47
2021/12/29 08:18:04;;;;;;;4.00;0.88;;;;;;;6.98;88.19;95048.09;4814955;29;20055;-48
2021/12/29 08:20:33;;;;;;;3.20;0.80;;;;;;;6.93;88.17;95054.50;4815644;29;20080;-48
2021/12/29 08:23:00;;;;;;;3.53;0.75;;;;;;;6.92;88.46;95060.19;4819575;29;20401;-49
2021/12/29 08:25:27;;;;;;;7.13;1.77;;;;;;;6.86;89.33;95056.13;4821792;29;20053;-48
2021/12/29 08:27:54;;;;;;;5.43;0.88;;;;;;;6.85;89.58;95059.94;4822795;29;20505;-47
2021/12/29 08:30:21;;;;;;;4.25;0.77;;;;;;;6.96;88.99;95047.66;4819949;29;20054;-47
2021/12/29 08:32:49;;;;;;;2.97;0.75;;;;;;;7.00;89.03;95038.59;4821866;29;20062;-46
2021/12/29 08:35:15;;;;;;;2.00;0.77;;;;;;;7.02;89.08;95043.66;4822578;29;20066;-44
2021/12/29 08:37:44;;;;;;;3.72;1.13;;;;;;;6.96;88.83;95050.34;4822496;29;20145;-48
2021/12/29 08:40:11;;;;;;;2.85;0.88;;;;;;;6.98;89.00;95054.25;4821519;29;20101;-46
2021/12/29 08:42:40;;;;;;;2.83;0.73;;;;;;;7.08;87.98;95052.28;4805152;29;20057;-46
2021/12/29 08:45:09;;;;;;;3.17;0.77;;;;;;;7.03;88.28;95056.75;4822466;29;20035;-45
2021/12/29 08:47:37;;;;;;;1.27;0.68;;;;;;;7.05;88.38;95064.50;4821513;29;20531;-44
2021/12/29 08:50:10;;;;;;;4.35;0.80;;;;;;;7.04;88.80;95068.31;4806503;29;20084;-44
2021/12/29 08:52:38;;;;;;;3.28;0.88;;;;;;;7.14;88.82;95067.88;4819117;29;20069;-44
2021/12/29 08:55:06;;;;;;;2.55;0.70;;;;;;;7.09;88.98;95075.41;4821138;29;20038;-47
2021/12/29 08:57:33;;;;;;;3.10;0.90;;;;;;;6.96;88.78;95088.78;4822809;29;20093;-47
2021/12/29 09:00:00;;;;;;;2.88;1.00;;;;;;;7.05;88.21;95088.69;4822566;29;20057;-47
2021/12/29 09:02:29;;;;;;;4.40;0.90;;;;;;;7.09;88.45;95084.25;4819005;29;20085;-45
2021/12/29 09:04:56;;;;;;;3.72;0.73;;;;;;;7.17;88.30;95082.59;4822791;29;20113;-49
2021/12/29 09:07:23;;;;;;;3.13;0.90;;;;;;;7.10;87.71;95087.72;4822482;29;20054;-44
2021/12/29 09:09:50;;;;;;;1.27;0.45;;;;;;;7.04;88.02;95087.13;4816646;29;20050;-48
2021/12/29 09:12:17;;;;;;;2.38;0.50;;;;;;;7.06;87.86;95086.81;4821773;29;20050;-47
2021/12/29 09:14:45;;;;;;;4.50;0.90;;;;;;;7.19;86.45;95091.91;4821867;29;20042;-46
2021/12/29 09:17:12;;;;;;;3.20;0.70;;;;;;;7.32;86.13;95100.81;4823247;29;20061;-45
2021/12/29 09:19:44;;;;;;;2.97;0.57;;;;;;;7.38;85.40;95104.09;4820979;29;20102;-46
2021/12/29 09:22:12;;;;;;;5.45;1.05;;;;;;;7.41;85.44;95101.53;4811254;29;20050;-48
2021/12/29 09:24:40;;;;;;;2.65;0.90;;;;;;;7.53;84.87;95111.53;4812907;29;20057;-44
2021/12/29 09:27:07;;;;;;;5.55;1.08;;;;;;;7.55;84.80;95122.75;4822147;29;20049;-46
2021/12/29 09:29:34;;;;;;;5.13;1.42;;;;;;;7.64;84.49;95111.91;4820840;29;20074;-45
2021/12/29 09:32:03;;;;;;;4.97;1.20;;;;;;;7.63;84.45;95121.84;4821400;29;20050;-47
2021/12/29 09:34:30;;;;;;;4.25;1.90;;;;;;;7.68;84.06;95108.19;4821147;29;20065;-44
2021/12/29 09:36:57;;;;;;;4.95;0.77;;;;;;;7.61;84.48;95107.97;4811943;29;20046;-48
2021/12/29 09:39:24;;;;;;;4.30;1.15;;;;;;;7.66;83.39;95112.34;4821688;29;20066;-45
2021/12/29 09:41:52;;;;;;;3.92;0.88;;;;;;;7.74;82.72;95122.25;4821235;29;20076;-48
2021/12/29 09:44:19;;;;;;;3.03;0.60;;;;;;;7.84;82.78;95119.13;4821660;29;20050;-48
2021/12/29 09:46:48;;;;;;;2.80;0.77;;;;;;;7.82;82.45;95109.78;4821119;29;20050;-47
2021/12/29 09:49:16;;;;;;;5.57;1.67;;;;;;;7.71;82.51;95106.75;4821555;29;20493;-47
2021/12/29 09:51:44;;;;;;;5.25;0.80;;;;;;;7.93;82.29;95105.56;4815376;29;20046;-49
2021/12/29 09:54:11;;;;;;;3.65;0.70;;;;;;;8.01;82.04;95106.56;4821277;29;20077;-48
2021/12/29 09:56:38;;;;;;;5.85;0.82;;;;;;;8.02;81.33;95103.53;4822070;29;20046;-47
2021/12/29 09:59:05;;;;;;;3.08;0.60;;;;;;;7.89;81.46;95115.41;4822151;29;20125;-48
2021/12/29 10:01:32;;;;;;;4.07;0.80;;;;;;;7.91;81.63;95118.56;4816757;29;20067;-49
2021/12/29 10:03:59;;;;;;;4.35;0.82;;;;;;;7.99;81.69;95117.66;4821974;29;20054;-48
2021/12/29 10:06:26;;;;;;;3.35;1.02;;;;;;;8.03;81.33;95118.59;4822096;29;20404;-46
2021/12/29 10:08:53;;;;;;;2.55;1.00;;;;;;;8.06;80.77;95128.69;4820960;29;20057;-47
2021/12/29 10:11:29;;;;;;;2.97;0.73;;;;;;;8.10;80.51;95124.19;4821153;29;20062;-48
2021/12/29 10:13:56;;;;;;;2.95;0.88;;;;;;;8.09;79.79;95121.81;4821515;29;20046;-47
2021/12/29 10:16:28;;;;;;;2.80;0.90;;;;;;;8.13;79.42;95120.84;4822188;29;20095;-47
2021/12/29 10:19:06;;;;;;;2.80;0.90;;;;;;;8.26;80.09;95110.06;4820364;29;20060;-47
2021/12/29 10:21:35;;;;;;;5.00;1.13;;;;;;;8.38;78.60;95120.84;4815125;29;20413;-48
2021/12/29 10:24:03;;;;;;;5.82;1.98;;;;;;;8.48;78.74;95115.00;4817874;29;20057;-47
2021/12/29 10:26:39;;;;;;;6.68;1.40;;;;;;;8.56;78.47;95114.09;4821753;29;20058;-44
2021/12/29 10:29:09;;;;;;;3.00;1.00;;;;;;;8.59;77.82;95126.91;4819393;29;20472;-47
2021/12/29 10:31:51;;;;;;;6.53;1.10;;;;;;;8.53;78.18;95119.41;4819381;29;20046;-46
2021/12/29 10:34:20;;;;;;;2.92;0.85;;;;;;;8.59;77.75;95120.75;4821438;29;20045;-46
2021/12/29 10:36:55;;;;;;;3.83;1.02;;;;;;;8.61;76.87;95124.69;4821598;29;20058;-46
2021/12/29 10:39:31;;;;;;;4.72;1.05;;;;;;;8.63;77.04;95116.22;4821344;29;20047;-46
2021/12/29 10:42:03;;;;;;;4.70;1.58;;;;;;;8.59;76.72;95118.81;4820868;29;20050;-47
2021/12/29 10:44:31;;;;;;;5.72;0.98;;;;;;;8.55;76.39;95123.34;4821126;29;20045;-46
2021/12/29 10:47:19;;;;;;;4.57;0.80;;;;;;;8.58;76.43;95116.44;4820351;29;20050;-45
2021/12/29 10:50:06;;;;;;;4.32;0.80;;;;;;;8.56;76.90;95119.50;4821368;29;20066;-45
2021/12/29 10:52:49;;;;;;;4.30;1.00;;;;;;;8.56;77.27;95118.72;4802652;29;20423;-46
2021/12/29 10:55:35;;;;;;;5.05;1.52;;;;;;;8.62;75.82;95122.75;4807606;29;20057;-48
2021/12/29 10:58:07;;;;;;;4.72;0.90;;;;;;;8.65;75.61;95130.16;4823319;29;20417;-49
2021/12/29 11:00:49;;;;;;;6.93;1.20;;;;;;;8.63;75.20;95117.00;4813178;29;20059;-48
2021/12/29 11:03:22;;;;;;;4.63;1.10;;;;;;;8.63;75.49;95130.50;4822658;29;20395;-44
2021/12/29 11:05:58;;;;;;;5.47;1.10;;;;;;;8.68;74.65;95123.28;4824706;29;20050;-46
2021/12/29 11:08:31;;;;;;;5.55;1.25;;;;;;;8.69;74.96;95132.97;4820173;29;20134;-46
2021/12/29 11:11:05;;;;;;;6.45;1.33;;;;;;;8.72;75.26;95127.69;4806156;29;20043;-43
2021/12/29 11:13:33;;;;;;;1.55;0.73;;;;;;;8.73;74.67;95137.34;4823767;29;20077;-44
2021/12/29 11:16:03;;;;;;;7.28;1.02;;;;;;;8.68;75.19;95136.78;4822214;29;20046;-47
2021/12/29 11:18:47;;;;;;;3.78;0.75;;;;;;;8.62;73.98;95145.13;4824155;29;20058;-43
2021/12/29 11:21:29;;;;;;;3.22;0.90;;;;;;;9.01;73.32;95156.28;4819979;29;20046;-42
2021/12/29 11:23:56;;;;;;;5.28;1.02;;;;;;;8.88;72.87;95152.06;4820563;29;20056;-43
2021/12/29 11:26:31;;;;;;;5.25;1.15;;;;;;;9.04;73.16;95149.44;4824220;29;20386;-45
2021/12/29 11:29:07;;;;;;;8.43;1.23;;;;;;;9.15;71.50;95149.75;4823913;29;20057;-43
2021/12/29 11:31:42;;;;;;;3.83;1.17;;;;;;;9.07;72.75;95146.84;4822628;29;20107;-43
2021/12/29 11:34:17;;;;;;;6.18;1.02;;;;;;;9.03;73.12;95143.22;4824369;29;20050;-43
2021/12/29 11:36:46;;;;;;;4.72;1.17;;;;;;;8.95;73.41;95146.88;4823560;29;20467;-44
2021/12/29 11:39:12;;;;;;;3.78;1.20;;;;;;;8.98;74.31;95140.78;4823048;29;20050;-43
2021/12/29 11:41:42;;;;;;;5.57;1.17;;;;;;;9.26;73.50;95148.13;4823566;29;20054;-43
2021/12/29 11:44:09;;;;;;;6.00;1.48;;;;;;;9.56;72.96;95148.59;4823979;29;20058;-43
2021/12/29 11:46:36;;;;;;;5.50;1.20;;;;;;;9.73;71.75;95155.59;4820242;29;20050;-43
2021/12/29 11:49:06;;;;;;;3.85;1.00;;;;;;;9.32;73.80;95162.94;4822333;29;20050;-43
2021/12/29 11:52:16;;;;;;;6.55;1.20;;;;;;;9.01;74.23;95150.91;4816591;29;20497;-43
2021/12/29 11:55:09;;;;;;;7.70;1.80;;;;;;;9.54;72.66;95156.22;4779118;29;20512;-44
2021/12/29 11:57:36;;;;;;;9.32;1.13;;;;;;;9.47;73.86;95156.03;4819945;29;20050;-43
2021/12/29 12:00:06;;;;;;;4.28;0.93;;;;;;;9.17;74.82;95153.66;4820232;29;20542;-43
2021/12/29 12:02:38;;;;;;;5.88;1.45;;;;;;;9.44;73.43;95156.72;4822298;29;20106;-44
2021/12/29 12:05:14;;;;;;;6.25;1.35;;;;;;;9.36;73.64;95163.84;4823753;29;20034;-45
2021/12/29 12:07:42;;;;;;;8.43;1.55;;;;;;;9.16;74.46;95164.78;4821965;29;20050;-46
2021/12/29 12:10:23;;;;;;;3.92;1.30;;;;;;;9.02;75.15;95157.84;4812792;29;20050;-47
2021/12/29 12:12:53;;;;;;;8.63;1.50;;;;;;;9.05;75.03;95157.19;4823377;29;20129;-43
2021/12/29 12:15:38;;;;;;;7.35;1.80;;;;;;;9.00;75.44;95157.44;4822168;29;20053;-45
2021/12/29 12:18:09;;;;;;;9.95;1.48;;;;;;;9.02;76.12;95154.38;4815233;29;20046;-43
2021/12/29 12:20:41;;;;;;;9.07;1.40;;;;;;;9.28;74.88;95159.38;4823510;29;20528;-44
2021/12/29 12:23:09;;;;;;;5.45;1.55;;;;;;;9.40;74.70;95145.84;4814901;29;20450;-44
2021/12/29 12:25:36;;;;;;;10.30;1.88;;;;;;;9.51;74.30;95155.00;4823381;29;20052;-46
2021/12/29 12:28:21;;;;;;;8.93;1.90;;;;;;;9.27;74.67;95147.78;4823203;29;20073;-44
2021/12/29 12:30:53;;;;;;;8.52;1.67;;;;;;;9.11;74.95;95155.03;4814689;29;20054;-48
2021/12/29 12:33:29;;;;;;;8.93;1.48;;;;;;;9.23;75.05;95146.91;4815455;29;20505;-48
2021/12/29 12:36:07;;;;;;;6.90;1.30;;;;;;;9.31;74.86;95147.88;4821911;29;20050;-41
2021/12/29 12:38:36;;;;;;;10.30;2.45;;;;;;;9.34;73.77;95163.41;4807174;29;20130;-41
2021/12/29 12:41:08;;;;;;;8.48;1.50;;;;;;;9.06;74.49;95155.25;4829208;29;20204;-42
2021/12/29 12:43:57;;;;;;;5.10;1.40;;;;;;;9.08;75.27;95150.31;4836890;29;20565;-41
2021/12/29 12:46:34;;;;;;;9.23;2.42;;;;;;;9.07;74.61;95159.56;4823055;29;20046;-46
2021/12/29 12:49:25;;;;;;;6.07;1.63;;;;;;;9.11;74.52;95153.13;4819973;29;20102;-41
2021/12/29 12:52:07;;;;;;;8.15;1.38;;;;;;;8.68;75.77;95150.25;4814905;29;20089;-46
2021/12/29 12:54:44;;;;;;;6.78;1.50;;;;;;;8.87;75.43;95145.06;4811740;29;20047;-42
2021/12/29 12:57:11;;;;;;;4.82;1.25;;;;;;;8.64;75.34;95148.28;4804077;29;20047;-45
2021/12/29 12:59:44;;;;;;;8.20;2.03;;;;;;;8.53;76.82;95144.44;4805020;29;20476;-42
2021/12/29 13:02:16;;;;;;;8.00;1.90;;;;;;;8.62;75.96;95153.19;4815806;29;20133;-42
2021/12/29 13:05:01;;;;;;;8.32;1.27;;;;;;;8.71;75.16;95158.50;4817136;29;20141;-46
2021/12/29 13:07:29;;;;;;;7.85;1.77;;;;;;;8.62;75.08;95166.69;4820975;29;20133;-45
2021/12/29 13:09:56;;;;;;;6.40;1.50;;;;;;;8.45;75.08;95156.13;4809296;29;20047;-47
2021/12/29 13:12:32;;;;;;;8.13;1.70;;;;;;;8.46;75.37;95160.41;4820617;29;20077;-48
2021/12/29 13:15:07;;;;;;;5.35;1.30;;;;;;;8.49;75.05;95172.44;4821874;29;20119;-46
2021/12/29 13:17:35;;;;;;;6.57;1.40;;;;;;;8.43;75.55;95177.25;4822142;29;20046;-46
2021/12/29 13:20:03;;;;;;;5.18;1.33;;;;;;;8.29;76.04;95168.69;4807035;29;20053;-44
2021/12/29 13:22:33;;;;;;;7.47;1.45;;;;;;;8.42;75.60;95170.28;4814124;29;20061;-44
2021/12/29 13:25:09;;;;;;;2.63;0.80;;;;;;;8.27;76.28;95176.31;4822882;29;20050;-44
2021/12/29 13:27:38;;;;;;;4.15;1.08;;;;;;;8.35;75.83;95170.00;4822778;29;20446;-45
2021/12/29 13:30:11;;;;;;;5.88;1.40;;;;;;;8.35;76.36;95180.78;4821185;29;20096;-46
2021/12/29 13:32:52;;;;;;;6.72;1.60;;;;;;;8.32;75.98;95189.53;4817431;29;20050;-47
2021/12/29 13:35:34;;;;;;;8.13;1.50;;;;;;;8.10;77.42;95196.94;4821908;29;20054;-45
2021/12/29 13:38:05;;;;;;;5.13;1.20;;;;;;;8.13;76.93;95193.59;4813960;29;20111;-46
2021/12/29 13:40:39;;;;;;;4.00;0.95;;;;;;;8.04;76.88;95195.56;4804367;29;20047;-48
2021/12/29 13:43:11;;;;;;;6.35;1.45;;;;;;;8.22;76.26;95192.69;4807316;29;20412;-45
2021/12/29 13:45:40;;;;;;;4.93;1.27;;;;;;;8.14;76.74;95197.84;4822759;29;20050;-44
2021/12/29 13:48:17;;;;;;;3.80;1.00;;;;;;;8.11;76.70;95211.97;4810490;29;20493;-43
2021/12/29 13:51:03;;;;;;;5.13;1.10;;;;;;;7.89;77.73;95206.97;4822135;29;20050;-43
2021/12/29 13:53:32;;;;;;;4.18;1.20;;;;;;;7.84;77.82;95215.28;4811902;29;20050;-42
2021/12/29 13:56:12;;;;;;;5.60;1.20;;;;;;;7.99;76.70;95220.03;4822096;29;20519;-44
2021/12/29 13:58:42;;;;;;;3.38;1.02;;;;;;;7.96;76.41;95221.50;4821159;29;20061;-49
2021/12/29 14:01:10;;;;;;;2.65;0.95;;;;;;;8.00;76.32;95223.53;4793267;29;20063;-41
2021/12/29 14:03:37;;;;;;;4.00;1.45;;;;;;;7.89;76.45;95212.38;4835789;24;20061;-44
2021/12/29 14:06:08;;;;;;;3.25;0.93;;;;;;;7.97;75.86;95216.91;4840476;29;20050;-43
2021/12/29 14:08:36;;;;;;;4.25;1.00;;;;;;;8.02;76.00;95208.59;4857112;29;20056;-46
2021/12/29 14:11:07;;;;;;;2.92;1.00;;;;;;;8.02;75.86;95213.97;4824004;29;20428;-47
2021/12/29 14:13:40;;;;;;;2.00;0.90;;;;;;;8.03;75.63;95217.47;4840185;29;20057;-45
2021/12/29 14:16:09;;;;;;;1.88;0.80;;;;;;;7.89;75.77;95221.22;4824313;29;20133;-47
2021/12/29 14:18:47;;;;;;;2.67;0.98;;;;;;;8.05;75.79;95221.38;4819701;29;20481;-46
2021/12/29 14:21:18;;;;;;;5.82;0.95;;;;;;;8.10;75.72;95223.88;4818592;29;20054;-48
2021/12/29 14:23:52;;;;;;;2.17;0.75;;;;;;;8.02;75.87;95227.44;4813229;29;20127;-41
2021/12/29 14:26:20;;;;;;;4.47;1.00;;;;;;;8.04;75.69;95219.81;4804389;29;20047;-46
2021/12/29 14:28:59;;;;;;;3.58;1.00;;;;;;;8.12;75.57;95232.41;4805213;29;20050;-47
2021/12/29 14:31:34;;;;;;;2.80;0.77;;;;;;;8.05;75.76;95218.69;4807087;29;20065;-47
2021/12/29 14:34:02;;;;;;;2.72;0.80;;;;;;;8.06;75.63;95219.47;4808851;29;20078;-46
2021/12/29 14:36:34;;;;;;;5.63;1.08;;;;;;;8.17;75.18;95231.41;4840959;29;20053;-44
2021/12/29 14:39:10;;;;;;;3.08;0.80;;;;;;;8.01;75.46;95227.78;4834852;29;20050;-47
2021/12/29 14:41:40;;;;;;;2.33;0.80;;;;;;;7.91;75.70;95232.47;4824831;29;20046;-45
2021/12/29 14:44:11;;;;;;;3.17;1.30;;;;;;;7.86;75.70;95235.34;4826495;29;20516;-46
2021/12/29 14:46:52;;;;;;;2.28;0.90;;;;;;;7.87;75.45;95244.25;4842834;29;20054;-47
2021/12/29 14:49:38;;;;;;;2.15;0.50;;;;;;;7.59;75.75;95246.69;4811878;29;20049;-48
2021/12/29 14:52:07;;;;;;;4.72;0.82;;;;;;;7.78;75.71;95244.31;4831819;29;20076;-46
2021/12/29 14:54:37;;;;;;;3.30;0.88;;;;;;;7.83;75.42;95246.00;4829409;29;20052;-46
2021/12/29 14:57:11;;;;;;;1.52;0.73;;;;;;;7.78;74.91;95241.63;4843636;29;20432;-44
2021/12/29 14:59:39;;;;;;;1.58;0.80;;;;;;;7.58;76.35;95243.22;4837602;29;20046;-45
2021/12/29 15:02:26;;;;;;;1.63;0.73;;;;;;;7.60;75.85;95254.44;4842986;29;20054;-48
2021/12/29 15:05:12;;;;;;;2.13;0.80;;;;;;;7.76;75.91;95265.41;4836033;29;20061;-47
2021/12/29 15:07:42;;;;;;;2.47;0.90;;;;;;;7.61;75.95;95257.94;4825275;29;20074;-47
2021/12/29 15:10:19;;;;;;;2.10;1.00;;;;;;;7.66;76.20;95263.88;4824257;29;20069;-44
2021/12/29 15:12:49;;;;;;;3.03;0.90;;;;;;;7.58;76.57;95267.47;4843005;29;20424;-45
2021/12/29 15:15:34;;;;;;;2.10;0.93;;;;;;;7.63;76.31;95258.38;4832322;29;20512;-44
2021/12/29 15:18:05;;;;;;;3.50;0.77;;;;;;;7.59;76.57;95252.88;4823217;29;20517;-44
2021/12/29 15:20:36;;;;;;;2.30;1.20;;;;;;;7.61;76.76;95257.94;4835818;29;20058;-45
2021/12/29 15:23:06;;;;;;;2.65;0.90;;;;;;;7.50;77.17;95260.22;4807954;29;20127;-46
2021/12/29 15:25:33;;;;;;;5.68;0.95;;;;;;;7.53;76.95;95264.94;4826764;29;20046;-49
2021/12/29 15:28:03;;;;;;;1.67;0.77;;;;;;;7.44;77.15;95272.28;4843099;29;20050;-50
2021/12/29 15:30:32;;;;;;;1.35;0.70;;;;;;;7.43;77.93;95260.75;4824213;29;20075;-49
2021/12/29 15:33:00;;;;;;;3.67;0.90;;;;;;;7.42;77.31;95264.56;4805895;29;20050;-50
2021/12/29 15:35:27;;;;;;;6.20;1.02;;;;;;;7.41;77.60;95281.03;4825216;29;20049;-48
2021/12/29 15:37:54;;;;;;;2.13;0.77;;;;;;;7.25;78.27;95278.16;4828726;29;20058;-48
2021/12/29 15:40:24;;;;;;;2.75;0.90;;;;;;;7.28;77.94;95287.44;4813831;29;20417;-46
2021/12/29 15:42:51;;;;;;;2.03;0.80;;;;;;;7.31;77.83;95276.03;4823047;29;20133;-48
2021/12/29 15:45:20;;;;;;;2.30;0.90;;;;;;;7.32;77.89;95273.03;4823819;29;20043;-45
2021/12/29 15:47:47;;;;;;;4.22;1.10;;;;;;;7.22;78.74;95274.19;4806514;29;20046;-50
2021/12/29 15:50:17;;;;;;;2.38;1.10;;;;;;;7.18;78.85;95278.66;4820471;29;20073;-49
2021/12/29 15:52:45;;;;;;;4.00;1.65;;;;;;;7.16;79.02;95274.72;4812163;29;20524;-46
2021/12/29 15:55:12;;;;;;;2.72;0.90;;;;;;;7.37;78.37;95270.13;4819126;29;20034;-47
2021/12/29 15:57:39;;;;;;;1.60;0.80;;;;;;;7.26;78.59;95275.13;4842418;29;20560;-48
2021/12/29 16:00:10;;;;;;;2.47;0.80;;;;;;;7.18;78.74;95286.75;4833868;29;20421;-49
2021/12/29 16:02:40;;;;;;;2.50;1.00;;;;;;;7.17;78.94;95292.44;4841890;29;20522;-47
2021/12/29 16:05:09;;;;;;;2.83;1.17;;;;;;;7.45;78.12;95287.34;4835734;29;20129;-46
2021/12/29 16:07:36;;;;;;;2.33;1.50;;;;;;;7.81;76.62;95288.66;4822824;29;20058;-47
2021/12/29 16:10:04;;;;;;;1.27;0.90;;;;;;;7.56;77.45;95295.81;4830094;29;20054;-46
2021/12/29 16:12:32;;;;;;;3.53;1.30;;;;;;;7.50;77.92;95301.38;4841611;29;20046;-47
2021/12/29 16:14:59;;;;;;;2.70;1.00;;;;;;;7.39;78.13;95302.13;4840670;29;20045;-43
2021/12/29 16:17:26;;;;;;;2.50;1.02;;;;;;;7.17;79.03;95293.22;4825136;29;20047;-45
2021/12/29 16:19:54;;;;;;;2.22;1.00;;;;;;;7.70;77.39;95289.06;4812145;29;20067;-50
2021/12/29 16:22:21;;;;;;;2.28;1.00;;;;;;;7.41;78.89;95291.78;4817364;29;20058;-46
2021/12/29 16:24:48;;;;;;;2.17;1.15;;;;;;;7.62;77.67;95286.44;4808904;29;20050;-48
2021/12/29 16:27:21;;;;;;;1.90;0.95;;;;;;;8.08;75.57;95293.47;4824285;29;20134;-44
2021/12/29 16:29:53;;;;;;;;;;;;;;;7.94;76.37;95280.28;4818504;29;20053;-47
2021/12/29 16:32:20;;;;;;;2.47;0.80;;;;;;;7.26;79.08;95285.88;4841354;29;19924;-45
2021/12/29 16:34:47;;;;;;;2.03;0.82;;;;;;;7.47;78.58;95279.72;4841569;29;20048;-45
2021/12/29 16:37:20;;;;;;;1.90;0.98;;;;;;;7.46;78.60;95273.56;4824976;29;20043;-48
2021/12/29 16:39:48;;;;;;;2.28;0.90;;;;;;;7.42;79.18;95285.31;4810275;29;20130;-49
2021/12/29 16:42:15;;;;;;;2.20;1.05;;;;;;;7.54;78.65;95296.16;4841131;29;20133;-47
2021/12/29 16:44:43;;;;;;;1.77;1.00;;;;;;;7.43;79.40;95289.56;4855444;29;20050;-44
2021/12/29 16:47:12;;;;;;;3.13;1.00;;;;;;;7.44;79.95;95277.69;4808206;29;20053;-44
2021/12/29 16:49:41;;;;;;;4.30;1.20;;;;;;;7.64;79.30;95285.00;4831221;29;20049;-43
2021/12/29 16:52:08;;;;;;;2.92;1.20;;;;;;;7.50;79.92;95279.84;4820499;29;20865;-44
2021/12/29 16:54:37;;;;;;;3.08;1.13;;;;;;;7.50;80.20;95285.22;4820864;29;20498;-47
2021/12/29 16:57:05;;;;;;;2.25;1.15;;;;;;;7.67;80.00;95291.59;4825065;29;20134;-45
2021/12/29 16:59:33;;;;;;;1.90;0.90;;;;;;;7.37;81.24;95280.91;4822123;29;20050;-45
2021/12/29 17:02:01;;;;;;;2.70;1.40;;;;;;;7.60;80.30;95289.44;4822725;29;20047;-46
2021/12/29 17:04:29;;;;;;;1.75;1.00;;;;;;;7.55;80.44;95281.56;4823253;29;20081;-47
2021/12/29 17:06:57;;;;;;;2.03;0.82;;;;;;;7.81;79.89;95272.50;4836445;29;20048;-46
2021/12/29 17:09:25;;;;;;;1.70;1.13;;;;;;;7.88;79.82;95278.13;4812162;29;20066;-44
2021/12/29 17:11:52;;;;;;;2.38;1.10;;;;;;;7.83;79.31;95275.63;4825833;29;20057;-44
2021/12/29 17:14:19;;;;;;;5.45;2.00;;;;;;;8.06;78.71;95282.25;4818977;29;20051;-46
2021/12/29 17:16:48;;;;;;;2.33;1.25;;;;;;;7.85;79.93;95263.41;4815288;29;20042;-44
2021/12/29 17:19:16;;;;;;;5.72;2.80;;;;;;;7.72;80.60;95270.66;4816095;29;20114;-42
2021/12/29 17:21:44;;;;;;;5.57;2.50;;;;;;;7.96;79.36;95271.88;4815529;29;20389;-45
2021/12/29 17:24:12;;;;;;;3.97;1.70;;;;;;;7.54;81.56;95271.94;4819731;29;20053;-42
2021/12/29 17:26:40;;;;;;;3.95;1.85;;;;;;;7.99;79.08;95276.59;4810591;29;20076;-41
2021/12/29 17:29:08;;;;;;;3.42;1.40;;;;;;;8.29;77.96;95274.56;4817478;29;20055;-44
2021/12/29 17:31:37;;;;;;;3.25;1.63;;;;;;;7.89;79.67;95285.09;4816271;29;20133;-40
2021/12/29 17:34:06;;;;;;;2.65;1.45;;;;;;;7.54;81.87;95285.38;4822752;29;20103;-41
2021/12/29 17:36:33;;;;;;;3.10;1.70;;;;;;;7.58;81.89;95293.59;4814658;29;20117;-42
2021/12/29 17:39:01;;;;;;;3.72;1.70;;;;;;;8.19;79.09;95289.25;4820060;29;20065;-42
2021/12/29 17:41:28;;;;;;;6.00;1.70;;;;;;;8.23;78.71;95283.19;4815392;29;20047;-50
2021/12/29 17:43:55;;;;;;;3.03;1.63;;;;;;;8.34;77.78;95273.56;4810179;29;20073;-49
2021/12/29 17:46:23;;;;;;;6.15;4.05;;;;;;;8.22;78.65;95289.69;4814214;29;20038;-44
2021/12/29 17:48:51;;;;;;;4.35;1.83;;;;;;;7.62;80.71;95287.22;4814657;29;20500;-47
2021/12/29 17:51:19;;;;;;;4.82;2.72;;;;;;;7.93;80.57;95280.63;4811868;29;20054;-49
2021/12/29 17:53:47;;;;;;;5.38;2.08;;;;;;;8.08;79.44;95281.91;4817209;29;20046;-47
2021/12/29 17:56:16;;;;;;;6.65;2.45;;;;;;;8.22;78.95;95278.91;4815299;29;20054;-43
2021/12/29 17:58:43;;;;;;;4.05;2.25;;;;;;;7.82;80.47;95288.31;4819159;29;20050;-49
2021/12/29 18:01:15;;;;;;;4.35;2.35;;;;;;;7.77;81.43;95283.16;4814867;29;20398;-45
2021/12/29 18:03:43;;;;;;;4.40;2.97;;;;;;;7.77;81.67;95275.06;4817983;29;20427;-48
2021/12/29 18:06:10;;;;;;;6.38;2.83;;;;;;;7.77;81.74;95276.94;4821358;29;20417;-46
2021/12/29 18:08:38;;;;;;;4.95;2.85;;;;;;;7.81;82.20;95272.50;4832022;29;20557;-46
2021/12/29 18:11:07;;;;;;;4.28;2.08;;;;;;;7.66;83.52;95277.34;4826666;29;20081;-44
2021/12/29 18:13:34;;;;;;;4.18;2.25;;;;;;;7.72;83.93;95267.97;4837597;29;20050;-44
2021/12/29 18:16:02;;;;;;;4.65;2.00;;;;;;;7.88;83.01;95272.75;4821611;29;20081;-42
2021/12/29 18:18:30;;;;;;;4.75;1.85;;;;;;;7.85;83.54;95278.78;4830929;29;20108;-42
2021/12/29 18:20:57;;;;;;;3.97;2.13;;;;;;;8.18;82.52;95268.00;4842175;29;20070;-46
2021/12/29 18:23:24;;;;;;;3.45;1.92;;;;;;;8.06;83.11;95271.47;4836187;29;20102;-45
2021/12/29 18:25:52;;;;;;;3.45;1.58;;;;;;;7.73;84.94;95269.56;4858703;29;20050;-42
2021/12/29 18:28:19;;;;;;;4.40;1.70;;;;;;;7.88;84.66;95275.44;4844487;29;20437;-43
2021/12/29 18:30:46;;;;;;;5.88;2.38;;;;;;;8.04;84.32;95281.78;4835008;29;20100;-44
2021/12/29 18:33:14;;;;;;;7.80;4.30;;;;;;;7.76;85.75;95270.78;4823324;29;20125;-43
2021/12/29 18:35:41;;;;;;;8.18;4.45;;;;;;;8.05;84.86;95277.97;4843098;29;20050;-45
2021/12/29 18:38:08;;;;;;;8.50;3.95;;;;;;;7.54;87.13;95268.41;4827706;29;20045;-44
2021/12/29 18:40:38;;;;;;;6.43;3.70;;;;;;;7.39;88.63;95270.59;4807796;29;20047;-44
2021/12/29 18:43:05;;;;;;;8.07;3.53;;;;;;;7.49;88.74;95264.03;4807670;29;20050;-44
2021/12/29 18:45:34;;;;;;;5.57;3.10;;;;;;;7.61;88.50;95256.03;4807583;29;20065;-47
2021/12/29 18:48:02;;;;;;;6.88;3.47;;;;;;;7.46;90.06;95267.38;4816205;29;20054;-47
2021/12/29 18:50:29;;;;;;;6.35;3.95;;;;;;;7.63;89.25;95266.47;4807619;29;20540;-46
2021/12/29 18:52:56;;;;;;;8.18;5.25;;;;;;;7.39;90.76;95248.28;4807929;29;20362;-46
2021/12/29 18:55:25;;;;;;;10.43;5.53;;;;;;;7.31;91.55;95255.28;4807520;29;20051;-45
2021/12/29 18:57:52;;;;;;;6.13;3.60;;;;;;;7.28;92.29;95249.78;4840219;29;20048;-43
2021/12/29 19:00:20;;;;;;;9.05;4.72;;;;;;;7.33;92.33;95252.28;4836548;29;20042;-47
2021/12/29 19:02:48;;;;;;;8.10;4.53;;;;;;;7.41;91.60;95254.09;4839429;29;20085;-46
2021/12/29 19:05:17;;;;;;;6.38;3.60;;;;;;;7.38;92.13;95242.13;4857743;29;20730;-45
2021/12/29 19:07:46;;;;;;;8.02;3.85;;;;;;;7.61;91.78;95250.66;4828269;29;20050;-44
2021/12/29 19:10:15;;;;;;;5.75;3.50;;;;;;;7.41;92.75;95249.53;4818589;29;20489;-46
2021/12/29 19:12:44;;;;;;;8.63;4.10;;;;;;;7.20;94.03;95246.81;4835209;29;20153;-46
2021/12/29 19:15:12;;;;;;;7.30;3.00;;;;;;;7.25;94.47;95246.66;4843484;29;20107;-43
2021/12/29 19:17:39;;;;;;;4.22;2.42;;;;;;;7.19;95.07;95253.31;4822305;29;20429;-45
2021/12/29 19:20:10;;;;;;;4.50;2.67;;;;;;;7.18;95.29;95259.84;4807102;29;20051;-45
2021/12/29 19:22:37;;;;;;;4.95;2.83;;;;;;;7.12;96.15;95268.41;4819517;29;20054;-44
2021/12/29 19:25:05;;;;;;;5.65;3.00;;;;;;;7.16;96.24;95274.72;4823873;29;20465;-44
2021/12/29 19:27:32;;;;;;;7.38;3.50;;;;;;;7.06;97.50;95283.16;4826281;29;20045;-51
2021/12/29 19:30:00;;;;;;;7.35;3.03;;;;;;;7.13;97.36;95270.78;4824064;29;20057;-46
2021/12/29 19:32:27;;;;;;;7.13;4.00;;;;;;;7.09;98.23;95280.63;4823196;29;20046;-48
2021/12/29 19:34:54;;;;;;;4.72;2.42;;;;;;;7.04;98.35;95280.78;4823826;29;20055;-45
2021/12/29 19:37:21;;;;;;;5.63;2.53;;;;;;;7.05;98.79;95281.56;4824875;29;20058;-44
2021/12/29 19:39:48;;;;;;;4.72;2.55;;;;;;;7.13;98.46;95270.78;4820795;29;20054;-42
2021/12/29 19:42:21;;;;;;;3.88;1.90;;;;;;;7.02;99.34;95273.06;4815611;29;20078;-48
2021/12/29 19:44:50;;;;;;;6.00;2.30;;;;;;;7.03;99.68;95271.16;4824938;29;20057;-48
2021/12/29 19:47:21;;;;;;;5.07;2.20;;;;;;;7.03;99.78;95271.16;4834656;29;20471;-48